createdAt,value
2019-05-23T00:02:13.385Z,95.42
2019-05-23T00:04:46.233Z,96.25
2019-05-23T00:07:17.422Z,96.64
2019-05-23T00:09:46.798Z,96.35
2019-05-23T00:12:33.838Z,96.19
2019-05-23T00:15:08.767Z,96.02
2019-05-23T00:17:36.621Z,95.92
2019-05-23T00:20:06.303Z,96.28
2019-05-23T00:22:35.350Z,96.45
2019-05-23T00:25:04.674Z,96.13
2019-05-23T00:27:33.783Z,95.55
2019-05-23T00:30:03.585Z,94.82
2019-05-23T00:32:45.407Z,94.78
2019-05-23T00:35:14.437Z,94.96
2019-05-23T00:37:45.816Z,95.59
2019-05-23T00:40:15.233Z,95.12
2019-05-23T00:42:44.548Z,94.89
2019-05-23T00:45:13.283Z,96.00
2019-05-23T00:47:42.213Z,96.51
2019-05-23T00:50:11.491Z,96.68
2019-05-23T00:52:42.250Z,96.38
2019-05-23T00:55:12.293Z,96.63
2019-05-23T00:57:41.174Z,96.78
2019-05-23T01:00:10.655Z,96.95
2019-05-23T01:02:38.742Z,96.93
2019-05-23T01:05:08.214Z,97.13
2019-05-23T01:07:35.707Z,96.72
2019-05-23T01:10:06.583Z,96.32
2019-05-23T01:12:35.696Z,96.70
2019-05-23T01:15:05.093Z,96.72
2019-05-23T01:17:35.531Z,96.11
2019-05-23T01:20:05.640Z,95.88
2019-05-23T01:22:33.590Z,96.13
2019-05-23T01:25:02.354Z,96.50
2019-05-23T01:27:31.116Z,96.59
2019-05-23T01:29:59.954Z,96.69
2019-05-23T01:32:46.963Z,96.78
2019-05-23T01:35:18.834Z,96.42
2019-05-23T01:37:47.799Z,96.03
2019-05-23T01:40:16.247Z,95.55
2019-05-23T01:42:45.785Z,95.02
2019-05-23T01:45:14.499Z,94.48
2019-05-23T01:47:43.046Z,93.34
2019-05-23T01:50:13.771Z,93.10
2019-05-23T01:52:42.315Z,93.00
2019-05-23T01:55:11.519Z,93.13
2019-05-23T01:57:40.880Z,92.85
2019-05-23T02:00:12.048Z,93.13
2019-05-23T02:02:40.538Z,93.23
2019-05-23T02:05:09.763Z,93.48
2019-05-23T02:07:38.411Z,93.51
2019-05-23T02:10:08.081Z,93.59
2019-05-23T02:12:36.959Z,93.45
2019-05-23T02:15:05.763Z,93.67
2019-05-23T02:17:34.396Z,93.85
2019-05-23T02:20:02.845Z,94.25
2019-05-23T02:22:30.998Z,94.58
2019-05-23T02:24:59.627Z,94.73
2019-05-23T02:27:27.547Z,94.67
2019-05-23T02:29:55.784Z,94.03
2019-05-23T02:32:26.175Z,93.84
2019-05-23T02:34:55.355Z,94.02
2019-05-23T02:37:51.977Z,94.14
2019-05-23T02:40:27.660Z,94.40
2019-05-23T02:42:59.235Z,94.61
2019-05-23T02:45:34.746Z,94.77
2019-05-23T02:48:06.190Z,94.67
2019-05-23T02:50:43.767Z,94.63
2019-05-23T02:53:14.629Z,94.56
2019-05-23T02:55:43.407Z,94.52
2019-05-23T02:58:31.225Z,94.47
2019-05-23T03:01:33.646Z,94.18
2019-05-23T03:04:06.774Z,93.80
2019-05-23T03:06:36.997Z,93.84
2019-05-23T03:09:06.642Z,93.19
2019-05-23T03:11:41.966Z,91.69
2019-05-23T03:14:11.281Z,92.14
2019-05-23T03:16:42.413Z,92.48
2019-05-23T03:19:20.646Z,92.88
2019-05-23T03:21:51.929Z,93.27
2019-05-23T03:24:21.197Z,93.48
2019-05-23T03:27:05.250Z,93.68
2019-05-23T03:29:34.061Z,93.82
2019-05-23T03:32:20.866Z,94.09
2019-05-23T03:34:54.149Z,94.05
2019-05-23T03:37:23.659Z,94.01
2019-05-23T03:39:53.655Z,94.14
2019-05-23T03:42:22.697Z,94.28
2019-05-23T03:44:51.560Z,94.34
2019-05-23T03:47:20.270Z,94.28
2019-05-23T03:49:48.822Z,94.20
2019-05-23T03:52:18.667Z,94.03
2019-05-23T03:54:46.554Z,93.53
2019-05-23T03:57:15.825Z,93.30
2019-05-23T03:59:46.042Z,93.18
2019-05-23T04:02:15.562Z,93.38
2019-05-23T04:04:44.437Z,93.60
2019-05-23T04:07:13.035Z,93.91
2019-05-23T04:09:42.989Z,94.12
2019-05-23T04:12:11.807Z,94.17
2019-05-23T04:14:39.772Z,93.89
2019-05-23T04:17:07.804Z,93.11
2019-05-23T04:19:36.500Z,92.48
2019-05-23T04:22:08.207Z,92.35
2019-05-23T04:24:36.776Z,91.79
2019-05-23T04:27:07.112Z,92.78
2019-05-23T04:29:35.121Z,92.74
2019-05-23T04:32:08.640Z,92.57
2019-05-23T04:34:33.987Z,92.11
2019-05-23T04:37:02.321Z,91.96
2019-05-23T04:39:31.049Z,92.30
2019-05-23T04:41:59.565Z,92.78
2019-05-23T04:44:27.725Z,92.31
2019-05-23T04:46:55.601Z,92.00
2019-05-23T04:49:24.193Z,91.95
2019-05-23T04:51:52.987Z,92.49
2019-05-23T04:54:22.185Z,92.87
2019-05-23T04:56:50.509Z,93.06
2019-05-23T04:59:18.800Z,93.14
2019-05-23T05:01:46.859Z,93.05
2019-05-23T05:04:15.027Z,92.87
2019-05-23T05:06:43.412Z,93.19
2019-05-23T05:09:15.967Z,93.23
2019-05-23T05:11:44.459Z,93.55
2019-05-23T05:14:13.459Z,93.73
2019-05-23T05:16:42.137Z,94.00
2019-05-23T05:19:10.919Z,93.39
2019-05-23T05:21:39.234Z,93.12
2019-05-23T05:24:07.077Z,93.17
2019-05-23T05:26:35.382Z,93.48
2019-05-23T05:29:04.779Z,93.73
2019-05-23T05:31:33.356Z,94.03
2019-05-23T05:34:01.543Z,94.29
2019-05-23T05:36:29.079Z,94.40
2019-05-23T05:38:58.005Z,94.43
2019-05-23T05:41:26.799Z,94.66
2019-05-23T05:43:55.094Z,94.77
2019-05-23T05:46:24.024Z,94.72
2019-05-23T05:48:52.382Z,94.58
2019-05-23T05:51:20.647Z,94.70
2019-05-23T05:53:49.146Z,94.73
2019-05-23T05:56:17.885Z,94.64
2019-05-23T05:58:46.847Z,94.59
2019-05-23T06:01:32.874Z,94.47
2019-05-23T06:03:47.886Z,93.89
2019-05-23T06:06:44.430Z,93.31
2019-05-23T06:09:21.234Z,93.30
2019-05-23T06:11:49.978Z,93.14
2019-05-23T06:14:18.074Z,92.47
2019-05-23T06:16:46.115Z,92.31
2019-05-23T06:19:14.468Z,92.39
2019-05-23T06:21:42.904Z,91.65
2019-05-23T06:24:11.555Z,91.23
2019-05-23T06:26:40.300Z,91.35
2019-05-23T06:29:09.163Z,91.37
2019-05-23T06:31:37.283Z,91.11
2019-05-23T06:34:06.389Z,90.85
2019-05-23T06:36:35.433Z,90.26
2019-05-23T06:39:05.705Z,88.73
2019-05-23T06:41:34.372Z,86.86
2019-05-23T06:44:03.764Z,85.89
2019-05-23T06:46:33.194Z,83.97
2019-05-23T06:49:00.970Z,80.93
2019-05-23T06:51:29.214Z,79.92
2019-05-23T06:53:57.429Z,78.43
2019-05-23T06:56:26.719Z,80.02
2019-05-23T06:58:54.615Z,79.82
2019-05-23T07:01:23.358Z,77.20
2019-05-23T07:03:51.650Z,79.38
2019-05-23T07:06:22.420Z,76.58
2019-05-23T07:08:50.791Z,76.85
2019-05-23T07:11:19.715Z,74.47
2019-05-23T07:13:48.433Z,74.89
2019-05-23T07:16:16.750Z,77.05
2019-05-23T07:18:45.378Z,75.68
2019-05-23T07:21:13.927Z,71.52
2019-05-23T07:23:42.700Z,71.56
2019-05-23T07:26:12.474Z,69.43
2019-05-23T07:28:41.305Z,66.37
2019-05-23T07:31:10.179Z,69.00
2019-05-23T07:33:38.965Z,69.37
2019-05-23T07:36:07.379Z,63.79
2019-05-23T07:38:35.299Z,64.00
2019-05-23T07:41:03.672Z,63.84
2019-05-23T07:43:31.255Z,64.98
2019-05-23T07:46:00.978Z,60.61
2019-05-23T07:48:30.450Z,59.22
2019-05-23T07:50:58.669Z,63.06
2019-05-23T07:53:45.364Z,61.25
2019-05-23T07:56:16.793Z,65.65
2019-05-23T07:58:44.985Z,61.71
2019-05-23T08:01:17.588Z,62.46
2019-05-23T08:03:47.918Z,61.63
2019-05-23T08:06:16.985Z,61.86
2019-05-23T08:08:45.388Z,61.41
2019-05-23T08:11:13.290Z,59.45
2019-05-23T08:13:42.204Z,58.21
2019-05-23T08:16:11.154Z,59.36
2019-05-23T08:18:39.880Z,59.44
2019-05-23T08:21:08.409Z,58.43
2019-05-23T08:23:36.472Z,59.63
2019-05-23T08:26:05.368Z,57.92
2019-05-23T08:28:36.521Z,53.89
2019-05-23T08:31:05.285Z,54.00
2019-05-23T08:33:33.743Z,57.81
2019-05-23T08:36:01.833Z,60.42
2019-05-23T08:38:30.618Z,55.90
2019-05-23T08:40:58.870Z,55.75
2019-05-23T08:43:27.894Z,56.12
2019-05-23T08:45:56.473Z,55.73
2019-05-23T08:48:24.397Z,53.30
2019-05-23T08:50:52.847Z,49.16
2019-05-23T08:53:21.528Z,52.50
2019-05-23T08:55:50.529Z,52.52
2019-05-23T08:58:27.537Z,56.37
2019-05-23T09:00:56.215Z,55.48
2019-05-23T09:03:25.405Z,53.81
2019-05-23T09:05:54.205Z,52.23
2019-05-23T09:08:22.638Z,53.47
2019-05-23T09:10:51.106Z,52.73
2019-05-23T09:13:20.211Z,48.25
2019-05-23T09:15:52.760Z,48.83
2019-05-23T09:18:18.383Z,52.23
2019-05-23T09:20:47.082Z,54.39
2019-05-23T09:23:15.519Z,55.01
2019-05-23T09:25:44.432Z,53.42
2019-05-23T09:28:13.834Z,55.43
2019-05-23T09:30:42.652Z,53.79
2019-05-23T09:33:11.057Z,51.96
2019-05-23T09:35:41.316Z,54.49
2019-05-23T09:38:09.253Z,52.34
2019-05-23T09:40:37.763Z,53.50
2019-05-23T09:43:07.442Z,53.03
2019-05-23T09:45:35.276Z,50.58
2019-05-23T09:48:03.478Z,49.14
2019-05-23T09:50:31.818Z,49.08
2019-05-23T09:53:01.179Z,52.58
2019-05-23T09:55:30.070Z,54.51
2019-05-23T09:57:58.661Z,50.16
2019-05-23T10:00:28.965Z,55.15
2019-05-23T10:02:57.475Z,51.51
2019-05-23T10:05:42.011Z,55.81
2019-05-23T10:07:55.066Z,53.76
2019-05-23T10:10:24.032Z,55.22
2019-05-23T10:12:52.253Z,54.82
2019-05-23T10:15:36.407Z,50.03
2019-05-23T10:18:04.620Z,46.23
2019-05-23T10:20:34.497Z,46.03
2019-05-23T10:23:03.173Z,53.13
2019-05-23T10:25:31.859Z,52.86
2019-05-23T10:28:00.508Z,51.17
2019-05-23T10:30:28.955Z,50.50
2019-05-23T10:32:57.240Z,46.73
2019-05-23T10:35:25.345Z,46.42
2019-05-23T10:37:53.300Z,42.01
2019-05-23T10:40:22.205Z,41.20
2019-05-23T10:42:50.656Z,42.37
2019-05-23T10:45:19.609Z,43.11
2019-05-23T10:47:48.459Z,46.63
2019-05-23T10:50:16.713Z,45.29
2019-05-23T10:52:45.087Z,44.14
2019-05-23T10:55:13.845Z,44.26
2019-05-23T10:57:41.686Z,41.00
2019-05-23T11:00:10.497Z,43.92
2019-05-23T11:02:37.778Z,46.24
2019-05-23T11:05:13.186Z,43.64
2019-05-23T11:07:39.106Z,45.69
2019-05-23T11:10:07.495Z,41.83
2019-05-23T11:12:35.883Z,41.88
2019-05-23T11:15:04.883Z,43.31
2019-05-23T11:17:33.701Z,46.48
2019-05-23T11:20:02.103Z,42.08
2019-05-23T11:22:30.814Z,43.93
2019-05-23T11:25:00.525Z,43.97
2019-05-23T11:27:29.527Z,42.94
2019-05-23T11:29:58.291Z,47.25
2019-05-23T11:32:26.538Z,43.92
2019-05-23T11:34:54.679Z,41.31
2019-05-23T11:37:23.350Z,42.76
2019-05-23T11:39:51.807Z,42.47
2019-05-23T11:42:20.073Z,46.50
2019-05-23T11:44:47.978Z,40.22
2019-05-23T11:47:17.160Z,40.90
2019-05-23T11:49:45.699Z,43.72
2019-05-23T11:52:14.616Z,39.98
2019-05-23T11:54:44.461Z,41.99
2019-05-23T11:57:13.023Z,42.35
2019-05-23T11:59:41.255Z,39.71
2019-05-23T12:02:38.283Z,41.37
2019-05-23T12:05:11.653Z,42.26
2019-05-23T12:07:39.959Z,42.01
2019-05-23T12:10:08.555Z,39.62
2019-05-23T12:12:36.520Z,37.00
2019-05-23T12:15:08.104Z,40.56
2019-05-23T12:17:36.514Z,36.49
2019-05-23T12:20:04.922Z,39.18
2019-05-23T12:22:33.498Z,38.18
2019-05-23T12:25:19.976Z,42.58
2019-05-23T12:27:32.629Z,40.25
2019-05-23T12:30:01.257Z,38.33
2019-05-23T12:32:29.757Z,39.90
2019-05-23T12:35:10.406Z,42.47
2019-05-23T12:37:28.612Z,44.15
2019-05-23T12:39:57.030Z,44.72
2019-05-23T12:42:25.414Z,42.14
2019-05-23T12:44:54.092Z,41.30
2019-05-23T12:47:33.329Z,43.69
2019-05-23T12:50:07.852Z,43.03
2019-05-23T12:52:36.468Z,40.46
2019-05-23T12:55:05.108Z,40.37
2019-05-23T12:57:33.623Z,40.13
2019-05-23T13:00:03.122Z,43.04
2019-05-23T13:02:31.426Z,41.73
2019-05-23T13:04:59.345Z,39.58
2019-05-23T13:07:36.153Z,35.44
2019-05-23T13:09:57.920Z,39.40
2019-05-23T13:12:26.176Z,33.61
2019-05-23T13:14:58.729Z,36.36
2019-05-23T13:17:25.362Z,36.57
2019-05-23T13:19:53.344Z,31.43
2019-05-23T13:22:21.191Z,31.88
2019-05-23T13:24:53.115Z,30.94
2019-05-23T13:27:20.583Z,32.59
2019-05-23T13:29:49.448Z,34.67
2019-05-23T13:32:18.596Z,34.33
2019-05-23T13:34:47.281Z,36.26
2019-05-23T13:37:17.299Z,33.64
2019-05-23T13:39:45.975Z,35.80
2019-05-23T13:42:13.566Z,31.09
2019-05-23T13:44:42.224Z,31.13
2019-05-23T13:47:10.452Z,28.66
2019-05-23T13:49:38.903Z,27.75
2019-05-23T13:52:07.180Z,27.52
2019-05-23T13:54:36.910Z,27.08
2019-05-23T13:57:05.881Z,27.04
2019-05-23T13:59:33.831Z,24.92
2019-05-23T14:02:02.853Z,27.38
2019-05-23T14:04:30.975Z,24.33
2019-05-23T14:06:59.745Z,28.87
2019-05-23T14:09:28.620Z,27.00
2019-05-23T14:12:19.909Z,27.62
2019-05-23T14:14:26.640Z,25.56
2019-05-23T14:17:14.469Z,26.70
2019-05-23T14:19:42.741Z,25.36
2019-05-23T14:22:10.780Z,24.41
2019-05-23T14:24:38.894Z,26.04
2019-05-23T14:27:26.089Z,24.31
2019-05-23T14:29:54.659Z,28.25
2019-05-23T14:32:32.934Z,28.34
2019-05-23T14:35:01.673Z,29.06
2019-05-23T14:37:34.794Z,28.07
2019-05-23T14:40:06.449Z,26.88
2019-05-23T14:42:58.435Z,27.38
2019-05-23T14:45:48.761Z,27.37
2019-05-23T14:48:42.447Z,28.76
2019-05-23T14:51:29.130Z,28.57
2019-05-23T14:54:11.218Z,25.34
2019-05-23T14:56:39.905Z,24.78
2019-05-23T14:59:08.204Z,25.05
2019-05-23T15:01:36.712Z,24.95
2019-05-23T15:04:05.631Z,22.88
2019-05-23T15:06:34.390Z,25.36
2019-05-23T15:09:03.052Z,25.16
2019-05-23T15:11:31.245Z,23.02
2019-05-23T15:13:59.881Z,23.16
2019-05-23T15:16:29.084Z,20.87
2019-05-23T15:18:56.926Z,24.26
2019-05-23T15:21:25.197Z,24.73
2019-05-23T15:23:53.419Z,22.40
2019-05-23T15:26:23.670Z,24.97
2019-05-23T15:28:53.378Z,28.06
2019-05-23T15:31:23.817Z,26.14
2019-05-23T15:33:52.577Z,28.85
2019-05-23T15:36:21.887Z,30.77
2019-05-23T15:39:07.557Z,30.98
2019-05-23T15:41:20.511Z,31.51
2019-05-23T15:43:49.169Z,32.29
2019-05-23T15:46:17.324Z,32.83
2019-05-23T15:48:46.007Z,34.59
2019-05-23T15:51:18.180Z,34.84
2019-05-23T15:54:17.992Z,36.50
2019-05-23T15:57:08.270Z,38.82
2019-05-23T15:59:58.625Z,38.54
2019-05-23T16:02:31.332Z,38.23
2019-05-23T16:05:00.458Z,37.68
2019-05-23T16:07:29.987Z,38.15
2019-05-23T16:09:58.638Z,39.43
2019-05-23T16:12:27.189Z,37.50
2019-05-23T16:14:55.411Z,38.48
2019-05-23T16:17:24.051Z,38.09
2019-05-23T16:19:53.032Z,39.39
2019-05-23T16:22:21.698Z,35.97
2019-05-23T16:24:50.313Z,37.77
2019-05-23T16:27:19.246Z,38.44
2019-05-23T16:29:47.092Z,39.26
2019-05-23T16:32:14.916Z,35.89
2019-05-23T16:34:43.525Z,38.14
2019-05-23T16:37:11.493Z,39.67
2019-05-23T16:39:47.414Z,38.88
2019-05-23T16:42:10.621Z,41.08
2019-05-23T16:44:40.086Z,42.75
2019-05-23T16:47:08.791Z,44.02
2019-05-23T16:49:37.483Z,40.50
2019-05-23T16:52:05.804Z,43.68
2019-05-23T16:54:39.627Z,44.44
2019-05-23T16:57:42.257Z,42.57
2019-05-23T17:00:42.549Z,43.75
2019-05-23T17:03:42.059Z,42.32
2019-05-23T17:06:21.363Z,44.89
2019-05-23T17:09:12.399Z,45.13
2019-05-23T17:11:55.526Z,44.91
2019-05-23T17:14:27.969Z,45.86
2019-05-23T17:17:39.523Z,44.31
2019-05-23T17:20:18.602Z,45.75
2019-05-23T17:22:56.594Z,45.66
2019-05-23T17:25:44.635Z,45.51
2019-05-23T17:28:23.541Z,46.72
2019-05-23T17:30:55.739Z,46.91
2019-05-23T17:33:24.419Z,47.44
2019-05-23T17:35:52.036Z,48.09
2019-05-23T17:38:20.366Z,48.09
2019-05-23T17:40:48.735Z,49.40
2019-05-23T17:43:17.443Z,49.40
2019-05-23T17:45:45.920Z,49.63
2019-05-23T17:48:14.347Z,48.97
2019-05-23T17:50:44.666Z,49.57
2019-05-23T17:53:13.465Z,49.57
2019-05-23T17:55:41.296Z,51.43
2019-05-23T17:58:09.589Z,51.74
2019-05-23T18:00:39.901Z,51.72
2019-05-23T18:03:08.133Z,51.97
2019-05-23T18:05:37.311Z,52.93
2019-05-23T18:08:09.446Z,53.13
2019-05-23T18:10:44.479Z,53.09
2019-05-23T18:13:08.106Z,53.41
2019-05-23T18:15:36.248Z,57.14
2019-05-23T18:18:05.686Z,56.46
2019-05-23T18:20:37.416Z,56.21
2019-05-23T18:23:07.565Z,56.73
2019-05-23T18:25:36.805Z,57.49
2019-05-23T18:28:06.143Z,57.80
2019-05-23T18:30:38.753Z,57.92
2019-05-23T18:33:10.121Z,58.87
2019-05-23T18:35:39.618Z,58.90
2019-05-23T18:38:08.008Z,58.90
2019-05-23T18:40:36.723Z,60.41
2019-05-23T18:43:05.846Z,60.92
2019-05-23T18:45:35.442Z,61.43
2019-05-23T18:48:04.541Z,62.34
2019-05-23T18:50:33.557Z,63.14
2019-05-23T18:53:03.735Z,63.21
2019-05-23T18:55:33.747Z,63.79
2019-05-23T18:58:02.163Z,65.59
2019-05-23T19:01:01.439Z,66.57
2019-05-23T19:03:29.794Z,67.59
2019-05-23T19:05:58.470Z,68.00
2019-05-23T19:08:26.778Z,67.84
2019-05-23T19:10:55.045Z,68.63
2019-05-23T19:13:26.571Z,69.79
2019-05-23T19:15:54.531Z,71.81
2019-05-23T19:18:23.505Z,71.13
2019-05-23T19:20:54.814Z,70.95
2019-05-23T19:23:22.511Z,70.60
2019-05-23T19:25:50.990Z,71.22
2019-05-23T19:28:19.901Z,71.93
2019-05-23T19:30:48.985Z,71.88
2019-05-23T19:33:18.508Z,72.95
2019-05-23T19:35:48.320Z,74.10
2019-05-23T19:38:18.486Z,74.84
2019-05-23T19:40:48.807Z,74.58
2019-05-23T19:43:19.287Z,75.29
2019-05-23T19:45:47.606Z,76.04
2019-05-23T19:48:17.088Z,76.90
2019-05-23T19:50:45.714Z,77.23
2019-05-23T19:53:14.680Z,77.41
2019-05-23T19:55:43.526Z,77.75
2019-05-23T19:58:12.298Z,78.18
2019-05-23T20:00:41.473Z,77.80
2019-05-23T20:03:11.215Z,77.90
2019-05-23T20:05:40.351Z,78.98
2019-05-23T20:08:09.211Z,78.84
2019-05-23T20:10:38.426Z,78.55
2019-05-23T20:13:07.467Z,78.56
2019-05-23T20:15:35.618Z,79.31
2019-05-23T20:18:03.468Z,78.84
2019-05-23T20:20:33.780Z,79.86
2019-05-23T20:23:02.491Z,79.43
2019-05-23T20:25:31.082Z,79.35
2019-05-23T20:27:59.226Z,78.04
2019-05-23T20:30:53.926Z,77.81
2019-05-23T20:33:22.608Z,77.31
2019-05-23T20:35:51.427Z,77.60
2019-05-23T20:38:19.693Z,79.40
2019-05-23T20:40:47.360Z,79.31
2019-05-23T20:43:15.878Z,78.79
2019-05-23T20:45:44.472Z,79.08
2019-05-23T20:48:12.675Z,79.89
2019-05-23T20:50:41.197Z,79.09
2019-05-23T20:53:09.773Z,80.19
2019-05-23T20:55:38.570Z,80.05
2019-05-23T20:58:07.596Z,79.64
2019-05-23T21:00:46.626Z,80.70
2019-05-23T21:03:14.438Z,81.54
2019-05-23T21:05:42.746Z,80.88
2019-05-23T21:08:11.237Z,81.04
2019-05-23T21:10:47.343Z,81.61
2019-05-23T21:13:15.988Z,81.97
2019-05-23T21:15:44.397Z,81.66
2019-05-23T21:18:12.862Z,81.83
2019-05-23T21:20:41.125Z,81.82
2019-05-23T21:23:09.497Z,82.32
2019-05-23T21:25:38.970Z,83.00
2019-05-23T21:28:07.118Z,82.83
2019-05-23T21:30:35.043Z,83.96
2019-05-23T21:33:03.729Z,83.66
2019-05-23T21:35:31.744Z,84.02
2019-05-23T21:38:00.190Z,83.89
2019-05-23T21:40:41.533Z,84.98
2019-05-23T21:43:09.700Z,84.64
2019-05-23T21:45:38.279Z,84.24
2019-05-23T21:48:06.951Z,85.26
2019-05-23T21:50:34.806Z,84.10
2019-05-23T21:53:02.782Z,84.30
2019-05-23T21:55:35.007Z,85.31
2019-05-23T21:58:02.754Z,84.73
2019-05-23T22:01:20.698Z,84.79
2019-05-23T22:03:54.930Z,84.62
2019-05-23T22:06:26.866Z,84.08
2019-05-23T22:08:55.229Z,84.29
2019-05-23T22:11:23.191Z,84.05
2019-05-23T22:13:51.233Z,84.97
2019-05-23T22:16:19.802Z,85.34
2019-05-23T22:18:47.322Z,85.44
2019-05-23T22:21:16.015Z,85.33
2019-05-23T22:23:43.433Z,84.97
2019-05-23T22:26:12.050Z,85.25
2019-05-23T22:28:40.430Z,85.52
2019-05-23T22:31:09.706Z,84.96
2019-05-23T22:33:40.952Z,85.64
2019-05-23T22:36:09.542Z,85.22
2019-05-23T22:38:37.915Z,85.37
2019-05-23T22:41:06.432Z,85.38
2019-05-23T22:43:34.734Z,84.79
2019-05-23T22:46:02.854Z,85.33
2019-05-23T22:48:31.512Z,84.92
2019-05-23T22:50:59.688Z,85.09
2019-05-23T22:53:28.400Z,84.31
2019-05-23T22:55:56.229Z,84.34
2019-05-23T22:58:24.476Z,84.37
2019-05-23T23:00:53.081Z,86.52
2019-05-23T23:03:21.374Z,85.71
2019-05-23T23:05:49.594Z,85.39
2019-05-23T23:08:17.715Z,84.78
2019-05-23T23:10:45.677Z,85.57
2019-05-23T23:13:14.696Z,86.01
2019-05-23T23:15:43.143Z,85.64
2019-05-23T23:18:11.686Z,85.02
2019-05-23T23:20:39.853Z,85.47
2019-05-23T23:23:08.422Z,85.63
2019-05-23T23:25:37.105Z,84.76
2019-05-23T23:28:05.713Z,85.50
2019-05-23T23:30:36.430Z,84.77
2019-05-23T23:33:05.035Z,85.54
2019-05-23T23:35:33.023Z,85.59
2019-05-23T23:38:01.340Z,85.18
2019-05-23T23:40:29.686Z,84.52
2019-05-23T23:42:57.310Z,84.38
2019-05-23T23:45:44.006Z,84.08
2019-05-23T23:48:29.822Z,83.52
2019-05-23T23:51:15.582Z,84.61
2019-05-23T23:54:01.586Z,84.64
2019-05-23T23:56:47.582Z,85.40
2019-05-23T23:59:14.758Z,85.38
